createdAt,value
2018-08-16T00:00:58.567Z,8.50
2018-08-16T00:03:25.860Z,9.80
2018-08-16T00:05:53.227Z,9.10
2018-08-16T00:08:20.584Z,9.90
2018-08-16T00:10:47.943Z,8.70
2018-08-16T00:13:15.251Z,9.20
2018-08-16T00:15:42.543Z,8.60
2018-08-16T00:18:09.954Z,8.70
2018-08-16T00:20:37.848Z,8.00
2018-08-16T00:23:05.142Z,10.50
2018-08-16T00:25:32.407Z,10.20
2018-08-16T00:28:00.160Z,11.00
2018-08-16T00:30:27.460Z,12.00
2018-08-16T00:32:58.947Z,11.20
2018-08-16T00:35:27.072Z,10.00
2018-08-16T00:37:54.404Z,12.30
2018-08-16T00:40:21.699Z,10.90
2018-08-16T00:42:48.995Z,10.60
2018-08-16T00:45:16.334Z,11.20
2018-08-16T00:47:43.662Z,11.00
2018-08-16T00:50:16.502Z,10.30
2018-08-16T00:52:43.815Z,10.70
2018-08-16T00:55:12.327Z,10.30
2018-08-16T00:57:39.634Z,12.20
2018-08-16T01:00:09.675Z,11.30
2018-08-16T01:02:37.003Z,12.20
2018-08-16T01:05:04.458Z,12.70
2018-08-16T01:07:31.777Z,12.00
2018-08-16T01:09:59.055Z,11.80
2018-08-16T01:12:26.763Z,11.50
2018-08-16T01:14:54.157Z,12.50
2018-08-16T01:17:21.522Z,12.70
2018-08-16T01:19:48.827Z,13.90
2018-08-16T01:22:16.147Z,13.90
2018-08-16T01:24:43.446Z,13.00
2018-08-16T01:27:11.356Z,14.40
2018-08-16T01:29:38.658Z,13.90
2018-08-16T01:32:05.941Z,14.50
2018-08-16T01:34:33.199Z,15.00
2018-08-16T01:37:00.479Z,15.20
2018-08-16T01:39:27.727Z,16.60
2018-08-16T01:41:55.035Z,15.10
2018-08-16T01:44:22.348Z,14.70
2018-08-16T01:46:49.619Z,14.30
2018-08-16T01:49:26.956Z,13.90
2018-08-16T01:51:54.791Z,14.70
2018-08-16T01:54:22.703Z,15.10
2018-08-16T01:56:50.391Z,14.30
2018-08-16T01:59:17.856Z,18.40
2018-08-16T02:01:46.008Z,16.40
2018-08-16T02:04:13.493Z,17.00
2018-08-16T02:06:40.994Z,16.00
2018-08-16T02:09:09.043Z,17.00
2018-08-16T02:11:36.883Z,15.40
2018-08-16T02:14:04.390Z,15.70
2018-08-16T02:16:31.867Z,19.90
2018-08-16T02:18:59.489Z,18.40
2018-08-16T02:21:27.019Z,17.10
2018-08-16T02:23:54.568Z,17.20
2018-08-16T02:26:22.132Z,18.20
2018-08-16T02:28:49.826Z,17.10
2018-08-16T02:31:17.340Z,17.80
2018-08-16T02:33:44.893Z,17.10
2018-08-16T02:36:12.389Z,17.00
2018-08-16T02:38:39.924Z,17.00
2018-08-16T02:41:07.612Z,19.00
2018-08-16T02:43:35.095Z,21.20
2018-08-16T02:46:02.616Z,24.40
2018-08-16T02:48:30.078Z,27.20
2018-08-16T02:50:57.678Z,22.60
2018-08-16T02:53:25.073Z,21.70
2018-08-16T02:55:52.599Z,21.30
2018-08-16T02:58:20.079Z,21.00
2018-08-16T03:00:47.547Z,22.40
2018-08-16T03:03:15.055Z,20.30
2018-08-16T03:05:42.552Z,19.60
2018-08-16T03:08:10.040Z,18.90
2018-08-16T03:10:37.496Z,20.90
2018-08-16T03:13:05.032Z,21.40
2018-08-16T03:15:32.689Z,21.20
2018-08-16T03:18:00.211Z,22.50
2018-08-16T03:20:27.663Z,21.50
2018-08-16T03:22:55.161Z,23.00
2018-08-16T03:25:22.649Z,24.60
2018-08-16T03:27:50.228Z,24.30
2018-08-16T03:30:17.776Z,23.70
2018-08-16T03:32:45.240Z,24.40
2018-08-16T03:35:12.728Z,26.70
2018-08-16T03:37:40.343Z,26.60
2018-08-16T03:40:07.928Z,24.60
2018-08-16T03:42:35.487Z,25.10
2018-08-16T03:45:02.992Z,24.10
2018-08-16T03:47:30.582Z,26.10
2018-08-16T03:49:58.041Z,25.10
2018-08-16T03:52:25.616Z,23.80
2018-08-16T03:54:53.096Z,28.50
2018-08-16T03:57:20.540Z,26.60
2018-08-16T03:59:48.073Z,26.50
2018-08-16T04:02:16.595Z,26.80
2018-08-16T04:04:44.076Z,24.50
2018-08-16T04:07:11.563Z,25.10
2018-08-16T04:09:39.036Z,22.20
2018-08-16T04:12:06.542Z,22.90
2018-08-16T04:14:34.027Z,22.90
2018-08-16T04:17:01.587Z,26.70
2018-08-16T04:19:29.069Z,28.50
2018-08-16T04:21:56.560Z,26.70
2018-08-16T04:24:24.080Z,25.60
2018-08-16T04:26:51.528Z,24.20
2018-08-16T04:29:19.710Z,26.60
2018-08-16T04:31:47.294Z,28.20
2018-08-16T04:34:14.737Z,29.10
2018-08-16T04:36:42.260Z,29.00
2018-08-16T04:39:10.251Z,28.50
2018-08-16T04:41:38.244Z,27.20
2018-08-16T04:44:06.738Z,30.70
2018-08-16T04:46:34.207Z,37.10
2018-08-16T04:49:01.789Z,36.70
2018-08-16T04:51:29.299Z,36.60
2018-08-16T04:53:56.815Z,35.70
2018-08-16T04:56:24.367Z,34.10
2018-08-16T04:58:51.862Z,46.70
2018-08-16T05:01:19.387Z,49.20
2018-08-16T05:03:46.848Z,48.60
2018-08-16T05:06:14.341Z,43.80
2018-08-16T05:08:41.913Z,41.90
2018-08-16T05:11:09.520Z,46.40
2018-08-16T05:13:36.956Z,49.90
2018-08-16T05:16:04.435Z,50.10
2018-08-16T05:18:31.937Z,52.30
2018-08-16T05:20:59.432Z,49.20
2018-08-16T05:23:26.955Z,50.30
2018-08-16T05:25:54.531Z,46.80
2018-08-16T05:28:22.044Z,39.90
2018-08-16T05:30:49.540Z,41.90
2018-08-16T05:33:17.082Z,46.70
2018-08-16T05:35:44.563Z,45.30
2018-08-16T05:38:12.675Z,41.90
2018-08-16T05:40:40.320Z,39.80
2018-08-16T05:43:07.925Z,45.90
2018-08-16T05:45:35.390Z,45.00
2018-08-16T05:48:02.953Z,47.50
2018-08-16T05:50:30.439Z,46.00
2018-08-16T05:52:57.940Z,50.60
2018-08-16T05:55:25.509Z,49.50
2018-08-16T05:57:53.188Z,49.90
2018-08-16T06:00:21.506Z,50.60
2018-08-16T06:02:49.013Z,54.50
2018-08-16T06:05:16.596Z,53.70
2018-08-16T06:07:44.138Z,50.80
2018-08-16T06:10:11.663Z,51.20
2018-08-16T06:12:39.183Z,50.30
2018-08-16T06:15:07.611Z,47.70
2018-08-16T06:17:35.823Z,45.40
2018-08-16T06:20:05.840Z,43.00
2018-08-16T06:22:33.309Z,42.30
2018-08-16T06:25:00.789Z,41.50
2018-08-16T06:27:44.540Z,40.50
2018-08-16T06:30:13.900Z,37.80
2018-08-16T06:32:41.308Z,36.50
2018-08-16T06:35:08.708Z,34.70
2018-08-16T06:37:36.064Z,32.30
2018-08-16T06:40:04.728Z,31.20
2018-08-16T06:42:32.080Z,30.90
2018-08-16T06:44:59.319Z,29.80
2018-08-16T06:47:26.624Z,29.10
2018-08-16T06:49:53.879Z,28.50
2018-08-16T06:52:21.179Z,28.00
2018-08-16T06:54:48.447Z,26.70
2018-08-16T06:57:15.847Z,24.50
2018-08-16T06:59:43.570Z,23.00
2018-08-16T07:02:10.841Z,21.90
2018-08-16T07:04:38.192Z,20.40
2018-08-16T07:07:05.494Z,20.50
2018-08-16T07:09:32.767Z,20.50
2018-08-16T07:12:00.108Z,19.30
2018-08-16T07:14:27.399Z,17.80
2018-08-16T07:16:54.672Z,17.10
2018-08-16T07:19:22.017Z,16.30
2018-08-16T07:21:49.279Z,14.70
2018-08-16T07:24:16.660Z,12.80
2018-08-16T07:26:44.179Z,13.30
2018-08-16T07:29:12.591Z,13.10
2018-08-16T07:31:40.072Z,11.80
2018-08-16T07:34:07.616Z,10.50
2018-08-16T07:36:35.139Z,9.40
2018-08-16T07:39:03.048Z,8.10
2018-08-16T07:41:30.508Z,6.50
2018-08-16T07:43:57.982Z,5.60
2018-08-16T07:46:25.490Z,2.70
2018-08-16T07:48:52.988Z,1.00
2018-08-16T07:51:20.729Z,1.00
2018-08-16T07:53:47.947Z,1.00
2018-08-16T07:56:15.440Z,1.00
2018-08-16T07:58:42.960Z,1.00
2018-08-16T08:01:10.456Z,1.00
2018-08-16T08:03:38.065Z,1.00
2018-08-16T08:06:05.543Z,1.00
2018-08-16T08:08:32.987Z,1.00
2018-08-16T08:11:00.484Z,1.00
2018-08-16T08:13:27.952Z,1.00
2018-08-16T08:15:55.497Z,1.00
2018-08-16T08:18:23.025Z,1.00
2018-08-16T08:20:50.486Z,1.00
2018-08-16T08:23:18.011Z,1.00
2018-08-16T08:25:45.504Z,1.00
2018-08-16T08:28:12.947Z,1.00
2018-08-16T08:30:40.452Z,1.00
2018-08-16T08:33:07.941Z,1.00
2018-08-16T08:35:35.428Z,1.00
2018-08-16T08:38:09.740Z,1.00
2018-08-16T08:40:37.032Z,1.00
2018-08-16T08:43:04.596Z,1.00
2018-08-16T08:45:31.864Z,1.00
2018-08-16T08:47:59.160Z,1.00
2018-08-16T08:50:26.628Z,1.00
2018-08-16T08:53:04.139Z,1.00
2018-08-16T08:55:42.997Z,1.00
2018-08-16T08:58:21.773Z,1.00
2018-08-16T09:00:49.092Z,1.00
2018-08-16T09:03:16.396Z,1.00
2018-08-16T09:05:43.671Z,1.00
2018-08-16T09:08:10.947Z,1.00
2018-08-16T09:10:50.643Z,1.00
2018-08-16T09:13:29.967Z,1.00
2018-08-16T09:15:58.380Z,1.00
2018-08-16T09:18:25.968Z,1.00
2018-08-16T09:20:53.505Z,1.00
2018-08-16T09:23:21.524Z,1.00
2018-08-16T09:25:49.052Z,1.00
2018-08-16T09:28:16.531Z,1.00
2018-08-16T09:30:55.534Z,1.00
2018-08-16T09:33:34.505Z,1.00
2018-08-16T09:36:01.967Z,1.00
2018-08-16T09:38:29.428Z,1.00
2018-08-16T09:40:56.879Z,1.00
2018-08-16T09:43:24.360Z,1.00
2018-08-16T09:47:08.566Z,1.00
2018-08-16T09:49:39.511Z,1.00
2018-08-16T09:52:07.472Z,1.00
2018-08-16T09:54:34.791Z,1.00
2018-08-16T09:57:03.236Z,1.00
2018-08-16T09:59:30.721Z,1.00
2018-08-16T10:01:58.205Z,1.00
2018-08-16T10:04:26.055Z,1.00
2018-08-16T10:06:53.554Z,1.00
2018-08-16T10:09:23.056Z,1.00
2018-08-16T10:11:50.708Z,1.00
2018-08-16T10:14:18.607Z,1.00
2018-08-16T10:16:46.098Z,1.00
2018-08-16T10:19:13.540Z,1.00
2018-08-16T10:21:41.126Z,1.00
2018-08-16T10:24:08.632Z,1.00
2018-08-16T10:26:36.207Z,1.00
2018-08-16T10:29:04.096Z,1.00
2018-08-16T10:31:31.615Z,1.00
2018-08-16T10:33:59.104Z,1.00
2018-08-16T10:36:26.952Z,1.00
2018-08-16T10:38:55.363Z,1.00
2018-08-16T10:41:22.954Z,1.00
2018-08-16T10:43:50.480Z,1.00
2018-08-16T10:46:18.004Z,1.00
2018-08-16T10:48:45.472Z,1.00
2018-08-16T10:51:13.483Z,1.00
2018-08-16T10:53:42.020Z,1.00
2018-08-16T10:56:09.556Z,1.00
2018-08-16T10:58:37.084Z,1.00
2018-08-16T11:01:04.624Z,1.00
2018-08-16T11:03:32.128Z,1.00
2018-08-16T11:05:59.615Z,1.00
2018-08-16T11:08:27.147Z,1.00
2018-08-16T11:10:54.660Z,1.00
2018-08-16T11:13:22.248Z,1.00
2018-08-16T11:15:49.824Z,1.00
2018-08-16T11:18:17.318Z,1.00
2018-08-16T11:20:44.897Z,1.00
2018-08-16T11:23:12.372Z,1.00
2018-08-16T11:25:39.948Z,1.00
2018-08-16T11:28:07.892Z,1.00
2018-08-16T11:30:35.463Z,1.00
2018-08-16T11:33:02.955Z,1.00
2018-08-16T11:35:30.414Z,1.00
2018-08-16T11:37:58.003Z,1.00
2018-08-16T11:40:25.399Z,1.00
2018-08-16T11:42:52.937Z,1.00
2018-08-16T11:45:20.440Z,1.00
2018-08-16T11:47:47.895Z,1.00
2018-08-16T11:50:15.367Z,1.00
2018-08-16T11:52:42.863Z,1.00
2018-08-16T11:55:10.419Z,1.00
2018-08-16T11:57:37.919Z,1.00
2018-08-16T12:00:05.630Z,1.00
2018-08-16T12:02:33.095Z,1.00
2018-08-16T12:05:00.576Z,1.00
2018-08-16T12:07:29.228Z,1.00
2018-08-16T12:09:56.700Z,1.00
2018-08-16T12:12:24.294Z,1.00
2018-08-16T12:14:51.802Z,1.00
2018-08-16T12:17:19.313Z,1.00
2018-08-16T12:19:51.143Z,1.00
2018-08-16T12:22:18.648Z,1.00
2018-08-16T12:24:46.151Z,1.00
2018-08-16T12:27:13.592Z,1.00
2018-08-16T12:29:41.068Z,1.00
2018-08-16T12:32:08.555Z,1.00
2018-08-16T12:34:36.008Z,1.00
2018-08-16T12:37:04.843Z,1.00
2018-08-16T12:39:32.332Z,1.00
2018-08-16T12:41:59.808Z,1.00
2018-08-16T12:44:27.359Z,1.00
2018-08-16T12:46:54.860Z,1.00
2018-08-16T12:49:22.437Z,1.00
2018-08-16T12:51:53.592Z,1.00
2018-08-16T12:54:21.074Z,1.00
2018-08-16T12:56:48.463Z,1.00
2018-08-16T12:59:15.968Z,1.00
2018-08-16T13:01:44.307Z,1.00
2018-08-16T13:04:11.728Z,1.00
2018-08-16T13:06:43.585Z,1.00
2018-08-16T13:09:11.040Z,1.00
2018-08-16T13:11:39.126Z,1.00
2018-08-16T13:14:06.856Z,1.00
2018-08-16T13:16:34.788Z,1.00
2018-08-16T13:19:02.475Z,1.00
2018-08-16T13:21:33.044Z,1.00
2018-08-16T13:24:00.953Z,1.00
2018-08-16T13:26:28.303Z,1.00
2018-08-16T13:28:55.637Z,1.00
2018-08-16T13:31:23.052Z,1.00
2018-08-16T13:33:55.171Z,1.00
2018-08-16T13:36:22.470Z,1.00
2018-08-16T13:38:49.763Z,1.00
2018-08-16T13:41:17.067Z,1.00
2018-08-16T13:43:44.361Z,1.00
2018-08-16T13:46:11.668Z,1.00
2018-08-16T13:48:39.100Z,1.00
2018-08-16T13:51:08.939Z,1.00
2018-08-16T13:53:36.239Z,1.00
2018-08-16T13:56:03.549Z,1.00
2018-08-16T13:58:30.880Z,1.00
2018-08-16T14:00:58.209Z,1.00
2018-08-16T14:03:28.626Z,1.00
2018-08-16T14:05:57.308Z,1.00
2018-08-16T14:08:24.690Z,1.00
2018-08-16T14:10:51.985Z,1.00
2018-08-16T14:13:20.530Z,1.00
2018-08-16T14:15:47.836Z,1.00
2018-08-16T14:18:19.508Z,1.00
2018-08-16T14:20:46.806Z,1.00
2018-08-16T14:23:14.140Z,1.00
2018-08-16T14:25:41.426Z,1.00
2018-08-16T14:28:08.782Z,1.00
2018-08-16T14:30:36.256Z,1.00
2018-08-16T14:33:07.783Z,1.00
2018-08-16T14:35:35.020Z,1.00
2018-08-16T14:38:03.009Z,1.00
2018-08-16T14:40:30.295Z,1.00
2018-08-16T14:42:57.576Z,1.00
2018-08-16T14:45:25.007Z,1.00
2018-08-16T14:48:02.528Z,1.00
2018-08-16T14:50:33.070Z,1.00
2018-08-16T14:53:00.340Z,1.00
2018-08-16T14:55:27.654Z,1.00
2018-08-16T14:57:56.480Z,1.00
2018-08-16T15:00:26.600Z,1.00
2018-08-16T15:02:53.923Z,1.00
2018-08-16T15:05:21.215Z,1.00
2018-08-16T15:07:48.487Z,1.00
2018-08-16T15:10:15.804Z,1.00
2018-08-16T15:12:43.515Z,1.00
2018-08-16T15:15:14.664Z,1.00
2018-08-16T15:17:41.980Z,1.00
2018-08-16T15:20:09.284Z,1.00
2018-08-16T15:22:36.600Z,1.00
2018-08-16T15:25:04.691Z,1.00
2018-08-16T15:27:31.975Z,1.00
2018-08-16T15:30:03.900Z,1.00
2018-08-16T15:32:31.164Z,1.00
2018-08-16T15:34:58.447Z,1.00
2018-08-16T15:37:25.763Z,1.00
2018-08-16T15:39:53.120Z,1.00
2018-08-16T15:42:26.063Z,1.00
2018-08-16T15:44:53.438Z,1.00
2018-08-16T15:47:20.757Z,1.00
2018-08-16T15:49:48.069Z,1.00
2018-08-16T15:52:15.364Z,1.00
2018-08-16T15:54:42.643Z,1.00
2018-08-16T15:57:14.168Z,1.00
2018-08-16T15:59:41.427Z,1.00
2018-08-16T16:02:08.763Z,1.00
2018-08-16T16:04:36.191Z,1.00
2018-08-16T16:07:03.684Z,1.00
2018-08-16T16:09:32.109Z,1.00
2018-08-16T16:12:01.111Z,1.00
2018-08-16T16:14:28.407Z,1.00
2018-08-16T16:16:55.715Z,1.00
2018-08-16T16:19:23.032Z,1.00
2018-08-16T16:21:50.314Z,1.00
2018-08-16T16:24:17.588Z,1.00
2018-08-16T16:26:44.892Z,1.00
2018-08-16T16:29:16.830Z,1.00
2018-08-16T16:31:44.111Z,1.00
2018-08-16T16:34:11.376Z,1.00
2018-08-16T16:36:39.631Z,1.00
2018-08-16T16:39:08.630Z,1.00
2018-08-16T16:41:35.917Z,1.00
2018-08-16T16:44:05.117Z,1.00
2018-08-16T16:46:32.389Z,1.00
2018-08-16T16:48:59.826Z,1.00
2018-08-16T16:51:27.109Z,1.00
2018-08-16T16:53:54.467Z,1.00
2018-08-16T16:56:21.817Z,1.00
2018-08-16T16:58:53.064Z,1.00
2018-08-16T17:01:20.480Z,1.00
2018-08-16T17:03:47.853Z,1.00
2018-08-16T17:06:15.161Z,1.00
2018-08-16T17:08:42.439Z,1.00
2018-08-16T17:11:09.719Z,1.00
2018-08-16T17:13:37.028Z,1.00
2018-08-16T17:16:04.476Z,1.00
2018-08-16T17:18:32.462Z,1.00
2018-08-16T17:20:59.783Z,1.00
2018-08-16T17:23:31.620Z,1.00
2018-08-16T17:25:58.905Z,1.00
2018-08-16T17:28:26.200Z,1.00
2018-08-16T17:30:53.531Z,1.00
2018-08-16T17:33:20.845Z,1.00
2018-08-16T17:35:48.148Z,1.00
2018-08-16T17:38:15.437Z,1.00
2018-08-16T17:40:42.714Z,1.00
2018-08-16T17:43:10.003Z,1.00
2018-08-16T17:45:37.276Z,1.00
2018-08-16T17:48:04.579Z,1.00
2018-08-16T17:50:31.839Z,1.00
2018-08-16T17:52:59.116Z,1.00
2018-08-16T17:55:26.403Z,1.00
2018-08-16T17:57:53.724Z,1.00
2018-08-16T18:00:21.058Z,1.00
2018-08-16T18:02:48.422Z,1.00
2018-08-16T18:05:15.696Z,1.00
2018-08-16T18:07:43.080Z,1.00
2018-08-16T18:10:10.415Z,1.00
2018-08-16T18:12:37.743Z,1.00
2018-08-16T18:15:06.980Z,1.00
2018-08-16T18:17:34.296Z,1.00
2018-08-16T18:20:01.669Z,1.00
2018-08-16T18:22:29.698Z,1.00
2018-08-16T18:24:56.951Z,1.00
2018-08-16T18:27:24.212Z,1.00
2018-08-16T18:29:53.106Z,1.00
2018-08-16T18:32:24.113Z,1.00
2018-08-16T18:34:51.384Z,1.00
2018-08-16T18:37:18.680Z,1.00
2018-08-16T18:39:46.146Z,1.00
2018-08-16T18:42:13.440Z,1.00
2018-08-16T18:44:42.987Z,1.00
2018-08-16T18:47:10.288Z,1.00
2018-08-16T18:49:37.608Z,1.00
2018-08-16T18:52:05.052Z,1.00
2018-08-16T18:54:32.499Z,1.00
2018-08-16T18:56:59.963Z,1.00
2018-08-16T18:59:31.370Z,1.00
2018-08-16T19:01:59.343Z,1.00
2018-08-16T19:04:26.615Z,1.00
2018-08-16T19:06:53.898Z,1.00
2018-08-16T19:09:21.157Z,1.00
2018-08-16T19:11:48.443Z,1.00
2018-08-16T19:14:17.440Z,1.00
2018-08-16T19:16:44.780Z,1.00
2018-08-16T19:19:12.064Z,1.00
2018-08-16T19:21:39.327Z,1.00
2018-08-16T19:24:06.642Z,1.00
2018-08-16T19:26:34.045Z,1.00
2018-08-16T19:29:01.348Z,1.00
2018-08-16T19:31:28.611Z,1.00
2018-08-16T19:33:55.890Z,1.00
2018-08-16T19:36:23.177Z,1.00
2018-08-16T19:38:50.453Z,1.00
2018-08-16T19:41:17.751Z,1.00
2018-08-16T19:43:45.011Z,1.00
2018-08-16T19:46:12.296Z,1.00
2018-08-16T19:48:39.608Z,1.00
2018-08-16T19:51:07.330Z,1.00
2018-08-16T19:53:34.591Z,1.00
2018-08-16T19:56:01.965Z,1.00
2018-08-16T19:58:29.260Z,1.00
2018-08-16T20:00:56.602Z,1.00
2018-08-16T20:03:23.918Z,1.00
2018-08-16T20:05:51.204Z,1.00
2018-08-16T20:08:18.555Z,1.00
2018-08-16T20:10:45.840Z,1.00
2018-08-16T20:13:13.324Z,1.00
2018-08-16T20:15:40.533Z,1.00
2018-08-16T20:18:08.209Z,1.00
2018-08-16T20:20:35.555Z,1.00
2018-08-16T20:23:03.977Z,1.00
2018-08-16T20:25:31.287Z,1.00
2018-08-16T20:27:58.560Z,1.00
2018-08-16T20:30:25.840Z,1.00
2018-08-16T20:32:53.107Z,1.00
2018-08-16T20:35:20.364Z,1.00
2018-08-16T20:37:47.647Z,1.00
2018-08-16T20:40:14.967Z,1.00
2018-08-16T20:42:42.231Z,1.00
2018-08-16T20:45:09.580Z,1.00
2018-08-16T20:47:36.935Z,1.00
2018-08-16T20:50:05.054Z,1.00
2018-08-16T20:52:32.408Z,1.00
2018-08-16T20:54:59.691Z,1.00
2018-08-16T20:57:27.020Z,1.00
2018-08-16T20:59:54.231Z,1.00
2018-08-16T21:02:21.495Z,1.00
2018-08-16T21:04:48.761Z,1.00
2018-08-16T21:07:16.015Z,1.00
2018-08-16T21:09:43.275Z,1.00
2018-08-16T21:12:10.548Z,1.00
2018-08-16T21:14:37.888Z,1.00
2018-08-16T21:17:05.250Z,1.00
2018-08-16T21:19:32.595Z,1.00
2018-08-16T21:21:59.862Z,1.00
2018-08-16T21:24:27.167Z,1.00
2018-08-16T21:26:54.439Z,1.00
2018-08-16T21:29:21.719Z,1.00
2018-08-16T21:31:48.995Z,1.00
2018-08-16T21:34:16.402Z,1.00
2018-08-16T21:36:44.142Z,1.00
2018-08-16T21:39:11.956Z,1.00
2018-08-16T21:41:39.373Z,1.00
2018-08-16T21:44:06.819Z,1.00
2018-08-16T21:46:34.144Z,1.00
2018-08-16T21:49:01.505Z,1.00
2018-08-16T21:51:28.784Z,1.00
2018-08-16T21:53:56.088Z,1.00
2018-08-16T21:56:23.371Z,1.00
2018-08-16T21:58:50.816Z,1.00
2018-08-16T22:01:18.421Z,1.00
2018-08-16T22:03:45.827Z,1.00
2018-08-16T22:06:24.859Z,1.00
2018-08-16T22:08:52.941Z,1.00
2018-08-16T22:11:20.239Z,1.00
2018-08-16T22:13:47.748Z,1.00
2018-08-16T22:16:15.246Z,1.00
2018-08-16T22:18:42.747Z,1.00
2018-08-16T22:21:10.429Z,1.00
2018-08-16T22:23:37.969Z,1.00
2018-08-16T22:26:05.576Z,1.00
2018-08-16T22:28:33.128Z,1.00
2018-08-16T22:31:00.818Z,1.00
2018-08-16T22:33:28.657Z,1.00
2018-08-16T22:35:56.255Z,1.00
2018-08-16T22:38:23.864Z,1.00
2018-08-16T22:40:51.357Z,1.00
2018-08-16T22:43:18.863Z,1.00
2018-08-16T22:45:46.344Z,1.00
2018-08-16T22:48:13.834Z,1.00
2018-08-16T22:50:41.356Z,1.00
2018-08-16T22:53:08.819Z,1.00
2018-08-16T22:55:36.316Z,1.00
2018-08-16T22:58:04.200Z,1.00
2018-08-16T23:00:32.209Z,1.00
2018-08-16T23:03:00.271Z,1.00
2018-08-16T23:05:27.823Z,1.00
2018-08-16T23:07:55.292Z,1.00
2018-08-16T23:10:22.799Z,1.00
2018-08-16T23:12:50.342Z,1.00
2018-08-16T23:15:17.985Z,1.00
2018-08-16T23:17:45.483Z,1.00
2018-08-16T23:20:13.025Z,1.00
2018-08-16T23:22:40.680Z,1.00
2018-08-16T23:25:08.484Z,1.00
2018-08-16T23:27:35.996Z,1.00
2018-08-16T23:30:08.779Z,1.00
2018-08-16T23:32:36.299Z,1.00
2018-08-16T23:35:04.075Z,1.00
2018-08-16T23:37:31.677Z,1.00
2018-08-16T23:39:59.175Z,1.00
2018-08-16T23:42:26.652Z,1.00
2018-08-16T23:44:54.171Z,1.00
2018-08-16T23:47:23.199Z,1.00
2018-08-16T23:49:50.743Z,1.00
2018-08-16T23:52:18.363Z,1.00
2018-08-16T23:54:45.904Z,1.00
2018-08-16T23:57:13.400Z,1.00
2018-08-16T23:59:40.864Z,1.50
